»·PEaware :: ACA243 KSLC-KLAS

ACA243 :: KSLC-KLAS

FLIGHT INFORMATION

Flight Status: Arrived
Operator:
Air Canada
More flights by this operator :: More flights under this callsign
Pilot: Cullen C. (7783)
Aircraft: AIRBUS A320
(A320)
More flights by this aircraft type
Origin: KSLC Salt Lake City Intl
United States
Destination: KLAS McCarran Intl
United States
More flights between these airports :: More routes between these airports
Route: +EDETH5 MLF MPIRE SITEE2
File this flight plan on PilotEdge
Remarks:
Altitude:
(Current/Filed)
36,000ft
Speed:
(Current/Filed)
452kts
Departed: 04-Dec-17 06:45 PM
Arrived: 04-Dec-17 07:43 PM
Distance/Time
Traveled:
319nm/0:58
Distance/Time
To Go:
Arrived

Flight Plot

Page will automatically refresh every two minutes.

Flight plan parsing failed; only flown route is shown


Map Options




Map Legend


Flown Route
Filed Route
Departure Airport
Arrival Airport
Navaid (VOR, NDB)
Fix

Horizontal Profiles

Position Reports

Time Latitude Longitude Heading Altitude Ground
Speed
04-Dec-17 18:22 40.787375 -111.977799 272 4236ft 0kts
04-Dec-17 18:26 40.787375 -111.977799 271 4236ft 0kts
04-Dec-17 18:27 40.787375 -111.977799 271 4236ft 0kts
04-Dec-17 18:28 40.787375 -111.977799 271 4236ft 0kts
04-Dec-17 18:29 40.787375 -111.977799 272 4236ft 0kts
04-Dec-17 18:30 40.787375 -111.977799 272 4236ft 0kts
04-Dec-17 18:31 40.787375 -111.977799 272 4236ft 0kts
04-Dec-17 18:32 40.787375 -111.977799 272 4236ft 0kts
04-Dec-17 18:33 40.787375 -111.977799 272 4236ft 0kts
04-Dec-17 18:34 40.787375 -111.977799 272 4236ft 0kts
04-Dec-17 18:35 40.787375 -111.977799 272 4236ft 0kts
04-Dec-17 18:36 40.787375 -111.977799 272 4236ft 0kts
04-Dec-17 18:37 40.787375 -111.977799 272 4236ft 0kts
04-Dec-17 18:38 40.787375 -111.977799 272 4236ft 0kts
04-Dec-17 18:39 40.787375 -111.977799 272 4236ft 0kts
04-Dec-17 18:40 40.787375 -111.977798 272 4236ft 0kts
04-Dec-17 18:41 40.787386 -111.977193 247 4236ft 2kts
04-Dec-17 18:42 40.787867 -111.976834 171 4236ft 2kts
04-Dec-17 18:43 40.788009 -111.976855 175 4236ft 0kts
04-Dec-17 18:44 40.788009 -111.976855 175 4236ft 0kts
04-Dec-17 18:45 40.786531 -111.976677 174 4236ft 9kts
04-Dec-17 18:46 40.783484 -111.976327 174 4236ft 11kts
04-Dec-17 18:47 40.779652 -111.975873 167 4236ft 16kts
04-Dec-17 18:48 40.775337 -111.974883 177 4236ft 9kts
04-Dec-17 18:49 40.774450 -111.974274 93 4236ft 7kts
04-Dec-17 18:50 40.787086 -111.974599 354 4236ft 150kts
04-Dec-17 18:51 40.819650 -112.010906 277 6449ft 195kts
04-Dec-17 18:52 40.827651 -112.093632 277 8477ft 256kts
04-Dec-17 18:53 40.816506 -112.182854 256 11352ft 268kts
04-Dec-17 18:54 40.771606 -112.260698 213 13672ft 310kts
04-Dec-17 18:55 40.685679 -112.292182 190 16048ft 334kts
04-Dec-17 18:56 40.591633 -112.307398 189 18295ft 349kts
04-Dec-17 18:57 40.493744 -112.326653 192 20270ft 365kts
04-Dec-17 18:58 40.394981 -112.347267 192 21990ft 381kts
04-Dec-17 18:59 40.293940 -112.388844 213 23374ft 395kts
04-Dec-17 19:00 40.193820 -112.459778 213 24307ft 427kts
04-Dec-17 19:01 40.087048 -112.534980 213 25181ft 452kts
04-Dec-17 19:02 39.975959 -112.612918 213 26374ft 462kts
04-Dec-17 19:03 39.863166 -112.691804 212 27484ft 472kts
04-Dec-17 19:04 39.747218 -112.772598 212 28537ft 479kts
04-Dec-17 19:05 39.620345 -112.828528 188 29447ft 498kts
04-Dec-17 19:06 39.482482 -112.848711 188 30388ft 503kts
04-Dec-17 19:07 39.344376 -112.869217 189 31453ft 503kts
04-Dec-17 19:08 39.207747 -112.889492 190 33094ft 485kts
04-Dec-17 19:09 39.077983 -112.908542 191 34753ft 466kts
04-Dec-17 19:10 38.950111 -112.927390 191 35677ft 463kts
04-Dec-17 19:11 38.825949 -112.945580 192 36415ft 459kts
04-Dec-17 19:12 38.700533 -112.963888 193 36398ft 456kts
04-Dec-17 19:13 38.574319 -112.982269 193 36401ft 458kts
04-Dec-17 19:14 38.448708 -113.000466 193 36389ft 457kts
04-Dec-17 19:15 38.327295 -113.033611 213 36390ft 438kts
04-Dec-17 19:16 38.218175 -113.100740 213 36405ft 437kts
04-Dec-17 19:17 38.109238 -113.167483 213 36394ft 435kts
04-Dec-17 19:18 38.000309 -113.234016 213 36394ft 434kts
04-Dec-17 19:19 37.892910 -113.299404 213 36334ft 434kts
04-Dec-17 19:20 37.785152 -113.364805 213 36348ft 434kts
04-Dec-17 19:21 37.675104 -113.431411 213 36361ft 445kts
04-Dec-17 19:22 37.563988 -113.498353 213 36350ft 443kts
04-Dec-17 19:23 37.453642 -113.564627 214 34736ft 441kts
04-Dec-17 19:24 37.344520 -113.629952 214 32735ft 433kts
04-Dec-17 19:25 37.237775 -113.693670 214 30848ft 426kts
04-Dec-17 19:26 37.132940 -113.756067 214 28963ft 421kts
04-Dec-17 19:27 37.029446 -113.817469 214 27049ft 417kts
04-Dec-17 19:28 36.925904 -113.878712 213 25094ft 412kts
04-Dec-17 19:29 36.825470 -113.937935 213 23089ft 407kts
04-Dec-17 19:30 36.724106 -113.997539 212 21032ft 398kts
04-Dec-17 19:31 36.628683 -114.053309 215 19430ft 365kts
04-Dec-17 19:32 36.553903 -114.127118 246 17161ft 330kts
04-Dec-17 19:33 36.505920 -114.221044 246 15569ft 315kts
04-Dec-17 19:34 36.459734 -114.311160 245 13988ft 304kts
04-Dec-17 19:35 36.414686 -114.398976 244 12746ft 309kts
04-Dec-17 19:36 36.369440 -114.486845 244 11610ft 299kts
04-Dec-17 19:37 36.324962 -114.573221 243 10447ft 296kts
04-Dec-17 19:38 36.271171 -114.642221 200 9758ft 283kts
04-Dec-17 19:39 36.199863 -114.672920 198 8899ft 265kts
04-Dec-17 19:40 36.132699 -114.701852 198 8113ft 250kts
04-Dec-17 19:41 36.074698 -114.742866 258 8026ft 251kts
04-Dec-17 19:42 36.074467 -114.824873 273 7672ft 235kts
04-Dec-17 19:43 36.074087 -114.898652 271 6060ft 241kts
04-Dec-17 19:44 36.073832 -114.979329 272 4429ft 222kts
04-Dec-17 19:45 36.073766 -115.049490 274 3357ft 175kts
04-Dec-17 19:46 36.073717 -115.102510 275 2537ft 148kts
04-Dec-17 19:47 36.073618 -115.143486 271 2120ft 41kts
04-Dec-17 19:48 36.076609 -115.152134 335 2120ft 19kts
04-Dec-17 19:49 36.077847 -115.152825 334 2120ft 6kts
04-Dec-17 19:50 36.080710 -115.151392 0 2120ft 19kts
04-Dec-17 19:51 36.082275 -115.151047 12 2120ft 0kts
04-Dec-17 19:52 36.082275 -115.151047 12 2120ft 0kts

Navigation Log

Ident Type
Flight plan parsing failed, navigation log unavailable